createdAt,value
2022-07-26T00:01:44.104Z,96269.31
2022-07-26T00:04:41.016Z,96266.22
2022-07-26T00:07:37.923Z,96264.56
2022-07-26T00:10:35.049Z,96263.84
2022-07-26T00:13:32.390Z,96273.63
2022-07-26T00:16:29.715Z,96272.13
2022-07-26T00:19:26.597Z,96273.06
2022-07-26T00:22:35.501Z,96270.91
2022-07-26T00:25:32.567Z,96270.84
2022-07-26T00:28:29.566Z,96271.88
2022-07-26T00:31:26.492Z,96277.06
2022-07-26T00:34:23.476Z,96284.75
2022-07-26T00:37:21.130Z,96278.91
2022-07-26T00:40:18.362Z,96289.69
2022-07-26T00:43:15.212Z,96290.75
2022-07-26T00:46:12.092Z,96304.50
2022-07-26T00:49:09.881Z,96313.19
2022-07-26T00:52:08.783Z,96318.44
2022-07-26T00:55:07.636Z,96312.06
2022-07-26T00:58:06.356Z,96314.41
2022-07-26T01:01:03.267Z,96312.34
2022-07-26T01:04:00.600Z,96309.88
2022-07-26T01:06:57.803Z,96313.16
2022-07-26T01:09:54.717Z,96308.63
2022-07-26T01:12:51.951Z,96305.34
2022-07-26T01:15:49.494Z,96312.09
2022-07-26T01:18:46.376Z,96309.16
2022-07-26T01:21:44.041Z,96310.47
2022-07-26T01:24:41.354Z,96322.66
2022-07-26T01:27:39.512Z,96318.25
2022-07-26T01:30:36.625Z,96334.38
2022-07-26T01:33:35.156Z,96324.22
2022-07-26T01:36:32.028Z,96331.72
2022-07-26T01:39:29.292Z,96324.47
2022-07-26T01:42:26.170Z,96327.63
2022-07-26T01:45:23.128Z,96320.53
2022-07-26T01:48:20.006Z,96319.13
2022-07-26T01:51:16.898Z,96314.41
2022-07-26T01:54:13.817Z,96329.00
2022-07-26T01:57:11.425Z,96325.81
2022-07-26T02:00:09.123Z,96328.50
2022-07-26T02:03:06.133Z,96323.41
2022-07-26T02:06:03.309Z,96317.44
2022-07-26T02:09:00.633Z,96319.13
2022-07-26T02:11:58.687Z,96324.00
2022-07-26T02:14:55.789Z,96321.44
2022-07-26T02:17:52.746Z,96321.88
2022-07-26T02:20:49.578Z,96322.03
2022-07-26T02:23:46.414Z,96314.59
2022-07-26T02:26:43.272Z,96317.53
2022-07-26T02:29:40.721Z,96323.13
2022-07-26T02:32:37.568Z,96330.34
2022-07-26T02:35:34.955Z,96323.53
2022-07-26T02:38:31.808Z,96321.44
2022-07-26T02:41:28.686Z,96324.56
2022-07-26T02:44:26.749Z,96335.84
2022-07-26T02:47:23.853Z,96320.09
2022-07-26T02:50:25.079Z,96320.34
2022-07-26T02:53:21.934Z,96320.31
2022-07-26T02:56:18.771Z,96328.47
2022-07-26T02:59:15.626Z,96318.41
2022-07-26T03:02:12.469Z,96313.09
2022-07-26T03:05:09.950Z,96322.22
2022-07-26T03:08:07.517Z,96318.72
2022-07-26T03:11:08.992Z,96316.06
2022-07-26T03:14:09.012Z,96327.72
2022-07-26T03:17:06.202Z,96325.34
2022-07-26T03:20:04.503Z,96331.28
2022-07-26T03:23:01.386Z,96319.66
2022-07-26T03:25:58.219Z,96332.41
2022-07-26T03:28:55.929Z,96326.66
2022-07-26T03:31:52.802Z,96327.88
2022-07-26T03:34:49.753Z,96332.16
2022-07-26T03:37:46.818Z,96341.41
2022-07-26T03:40:43.850Z,96324.41
2022-07-26T03:43:41.445Z,96327.88
2022-07-26T03:46:38.326Z,96329.78
2022-07-26T03:49:35.623Z,96331.59
2022-07-26T03:52:32.638Z,96328.44
2022-07-26T03:55:47.907Z,96331.59
2022-07-26T03:58:44.806Z,96336.63
2022-07-26T04:01:42.632Z,96344.59
2022-07-26T04:04:39.543Z,96344.13
2022-07-26T04:07:43.343Z,96344.50
2022-07-26T04:10:55.442Z,96335.56
2022-07-26T04:13:52.367Z,96344.53
2022-07-26T04:16:49.245Z,96357.94
2022-07-26T04:19:46.136Z,96352.03
2022-07-26T04:22:43.143Z,96354.47
2022-07-26T04:25:41.804Z,96357.16
2022-07-26T04:28:38.785Z,96357.09
2022-07-26T04:31:36.379Z,96361.91
2022-07-26T04:34:33.499Z,96358.06
2022-07-26T04:37:32.895Z,96356.72
2022-07-26T04:40:33.586Z,96367.41
2022-07-26T04:43:30.443Z,96353.19
2022-07-26T04:46:27.411Z,96360.53
2022-07-26T04:49:24.368Z,96365.84
2022-07-26T04:52:21.218Z,96370.75
2022-07-26T04:55:18.988Z,96369.69
2022-07-26T04:58:15.930Z,96371.94
2022-07-26T05:01:16.000Z,96374.91
2022-07-26T05:04:13.125Z,96378.06
2022-07-26T05:07:10.424Z,96375.88
2022-07-26T05:10:08.194Z,96372.31
2022-07-26T05:13:06.353Z,96374.59
2022-07-26T05:16:03.255Z,96373.44
2022-07-26T05:19:08.767Z,96377.25
2022-07-26T05:22:05.623Z,96377.84
2022-07-26T05:25:04.060Z,96378.78
2022-07-26T05:28:01.018Z,96375.28
2022-07-26T05:30:57.970Z,96377.84
2022-07-26T05:33:55.309Z,96376.88
2022-07-26T05:36:52.199Z,96373.19
2022-07-26T05:39:49.027Z,96381.56
2022-07-26T05:42:45.891Z,96372.81
2022-07-26T05:45:42.876Z,96373.91
2022-07-26T05:48:40.381Z,96372.69
2022-07-26T05:51:37.367Z,96371.63
2022-07-26T05:54:34.333Z,96374.25
2022-07-26T05:57:31.250Z,96373.94
2022-07-26T06:00:28.137Z,96375.78
2022-07-26T06:03:25.875Z,96377.94
2022-07-26T06:06:22.735Z,96375.44
2022-07-26T06:09:19.615Z,96375.09
2022-07-26T06:12:17.984Z,96374.66
2022-07-26T06:15:15.960Z,96373.84
2022-07-26T06:18:13.638Z,96373.94
2022-07-26T06:21:10.573Z,96368.91
2022-07-26T06:24:07.832Z,96372.03
2022-07-26T06:27:05.706Z,96371.34
2022-07-26T06:30:02.820Z,96370.56
2022-07-26T06:32:59.777Z,96380.06
2022-07-26T06:35:56.813Z,96381.25
2022-07-26T06:38:54.980Z,96381.06
2022-07-26T06:41:51.937Z,96384.59
2022-07-26T06:44:48.800Z,96385.28
2022-07-26T06:47:45.673Z,96385.66
2022-07-26T06:50:42.563Z,96382.81
2022-07-26T06:53:39.471Z,96382.44
2022-07-26T06:56:36.330Z,96384.88
2022-07-26T06:59:33.203Z,96389.66
2022-07-26T07:02:30.088Z,96389.34
2022-07-26T07:05:27.004Z,96393.88
2022-07-26T07:08:28.114Z,96383.13
2022-07-26T07:11:25.582Z,96378.72
2022-07-26T07:14:22.897Z,96379.50
2022-07-26T07:17:21.066Z,96371.63
2022-07-26T07:20:17.977Z,96382.50
2022-07-26T07:23:14.939Z,96374.44
2022-07-26T07:26:11.785Z,96372.47
2022-07-26T07:29:12.644Z,96370.34
2022-07-26T07:32:15.966Z,96368.09
2022-07-26T07:35:15.635Z,96374.75
2022-07-26T07:38:12.480Z,96364.72
2022-07-26T07:41:09.393Z,96364.78
2022-07-26T07:44:06.635Z,96360.22
2022-07-26T07:47:04.121Z,96367.28
2022-07-26T07:50:01.372Z,96375.78
2022-07-26T07:52:59.313Z,96376.75
2022-07-26T07:55:58.961Z,96363.72
2022-07-26T07:58:55.794Z,96364.97
2022-07-26T08:01:52.767Z,96358.31
2022-07-26T08:04:49.726Z,96353.91
2022-07-26T08:07:47.129Z,96360.25
2022-07-26T08:10:51.785Z,96351.88
2022-07-26T08:13:49.358Z,96365.69
2022-07-26T08:16:46.483Z,96366.31
2022-07-26T08:19:43.636Z,96352.28
2022-07-26T08:22:40.631Z,96351.94
2022-07-26T08:25:42.543Z,96358.31
2022-07-26T08:28:48.222Z,96356.66
2022-07-26T08:31:45.839Z,96349.00
2022-07-26T08:34:42.737Z,96348.03
2022-07-26T08:37:39.716Z,96341.94
2022-07-26T08:40:36.860Z,96346.91
2022-07-26T08:43:48.919Z,96337.94
2022-07-26T08:46:49.373Z,96351.59
2022-07-26T08:49:47.009Z,96344.25
2022-07-26T08:52:44.512Z,96342.56
2022-07-26T08:58:58.181Z,96345.06
2022-07-26T09:02:06.652Z,96345.47
2022-07-26T09:05:04.895Z,96345.81
2022-07-26T09:08:23.820Z,96339.97
2022-07-26T09:11:23.548Z,96349.28
2022-07-26T09:14:20.471Z,96357.09
2022-07-26T09:17:20.759Z,96344.19
2022-07-26T09:20:27.975Z,96336.03
2022-07-26T09:23:25.475Z,96343.03
2022-07-26T09:26:22.368Z,96350.81
2022-07-26T09:29:19.239Z,96344.47
2022-07-26T09:32:23.074Z,96350.69
2022-07-26T09:35:50.088Z,96344.56
2022-07-26T09:38:51.304Z,96343.47
2022-07-26T09:42:04.736Z,96348.97
2022-07-26T09:45:17.061Z,96363.03
2022-07-26T09:48:13.932Z,96366.94
2022-07-26T09:51:11.534Z,96352.56
2022-07-26T09:54:10.501Z,96342.72
2022-07-26T09:57:07.832Z,96349.25
2022-07-26T10:00:25.847Z,96348.44
2022-07-26T10:03:22.905Z,96347.00
2022-07-26T10:06:19.740Z,96346.81
2022-07-26T10:09:18.553Z,96358.09
2022-07-26T10:12:17.430Z,96352.72
2022-07-26T10:15:35.778Z,96351.81
2022-07-26T10:18:38.978Z,96362.09
2022-07-26T10:21:36.178Z,96347.94
2022-07-26T10:24:34.591Z,96355.22
2022-07-26T10:27:41.530Z,96355.06
2022-07-26T10:30:38.394Z,96355.19
2022-07-26T10:33:47.041Z,96351.31
2022-07-26T10:36:43.895Z,96356.44
2022-07-26T10:39:40.765Z,96342.22
2022-07-26T10:42:45.308Z,96348.50
2022-07-26T10:45:43.115Z,96361.13
2022-07-26T10:49:06.622Z,96360.03
2022-07-26T10:52:17.997Z,96352.63
2022-07-26T10:55:14.956Z,96360.19
2022-07-26T10:58:11.895Z,96351.84
2022-07-26T11:01:08.800Z,96372.56
2022-07-26T11:04:20.365Z,96370.03
2022-07-26T11:07:17.226Z,96368.22
2022-07-26T11:10:14.279Z,96368.28
2022-07-26T11:13:19.423Z,96364.41
2022-07-26T11:16:16.316Z,96373.75
2022-07-26T11:19:24.824Z,96380.97
2022-07-26T11:22:22.962Z,96372.19
2022-07-26T11:25:22.358Z,96365.16
2022-07-26T11:28:21.293Z,96368.81
2022-07-26T11:31:24.405Z,96360.06
2022-07-26T11:34:41.189Z,96353.91
2022-07-26T11:37:38.036Z,96350.94
2022-07-26T11:40:48.092Z,96350.28
2022-07-26T11:43:45.026Z,96349.00
2022-07-26T11:46:47.624Z,96365.63
2022-07-26T11:50:09.762Z,96360.81
2022-07-26T11:53:01.602Z,96362.84
2022-07-26T11:56:17.289Z,96353.91
2022-07-26T11:59:14.529Z,96344.34
2022-07-26T12:02:12.523Z,96353.84
2022-07-26T12:05:27.703Z,96329.63
2022-07-26T12:08:24.770Z,96338.69
2022-07-26T12:11:23.998Z,96352.13
2022-07-26T12:14:32.866Z,96354.13
2022-07-26T12:17:35.213Z,96352.66
2022-07-26T12:20:39.006Z,96361.22
2022-07-26T12:23:50.829Z,96362.84
2022-07-26T12:27:09.081Z,96361.75
2022-07-26T12:30:08.506Z,96354.28
2022-07-26T12:33:05.390Z,96369.88
2022-07-26T12:36:27.111Z,96365.22
2022-07-26T12:39:25.907Z,96381.81
2022-07-26T12:42:33.448Z,96366.50
2022-07-26T12:45:34.067Z,96370.44
2022-07-26T12:48:30.964Z,96383.91
2022-07-26T12:51:28.875Z,96384.91
2022-07-26T12:54:29.493Z,96388.22
2022-07-26T12:57:27.304Z,96378.44
2022-07-26T13:00:24.482Z,96389.91
2022-07-26T13:03:21.343Z,96390.66
2022-07-26T13:06:18.204Z,96405.56
2022-07-26T13:09:16.859Z,96389.81
2022-07-26T13:12:16.473Z,96388.72
2022-07-26T13:15:13.330Z,96395.13
2022-07-26T13:18:10.233Z,96387.50
2022-07-26T13:21:07.420Z,96387.44
2022-07-26T13:24:06.815Z,96399.47
2022-07-26T13:27:07.569Z,96395.94
2022-07-26T13:30:05.336Z,96403.59
2022-07-26T13:33:02.171Z,96410.66
2022-07-26T13:35:59.024Z,96406.75
2022-07-26T13:38:55.917Z,96413.75
2022-07-26T13:41:53.601Z,96405.91
2022-07-26T13:44:50.448Z,96403.44
2022-07-26T13:47:47.289Z,96412.88
2022-07-26T13:50:44.152Z,96409.13
2022-07-26T13:53:52.324Z,96394.44
2022-07-26T13:56:53.321Z,96400.09
2022-07-26T13:59:50.174Z,96411.22
2022-07-26T14:02:47.065Z,96400.88
2022-07-26T14:05:43.972Z,96403.56
2022-07-26T14:08:40.925Z,96407.31
2022-07-26T14:11:38.829Z,96399.69
2022-07-26T14:14:35.701Z,96409.03
2022-07-26T14:17:32.549Z,96411.97
2022-07-26T14:20:29.544Z,96421.88
2022-07-26T14:23:26.383Z,96426.19
2022-07-26T14:26:23.914Z,96432.47
2022-07-26T14:29:20.783Z,96426.63
2022-07-26T14:32:21.440Z,96424.72
2022-07-26T14:35:18.886Z,96427.34
2022-07-26T14:38:22.396Z,96430.97
2022-07-26T14:41:21.578Z,96427.47
2022-07-26T14:44:18.476Z,96432.91
2022-07-26T14:47:15.343Z,96427.03
2022-07-26T14:50:14.577Z,96433.69
2022-07-26T14:53:13.834Z,96430.56
2022-07-26T14:56:10.782Z,96425.34
2022-07-26T14:59:07.965Z,96427.03
2022-07-26T15:02:06.066Z,96438.78
2022-07-26T15:05:03.374Z,96443.44
2022-07-26T15:08:05.567Z,96434.03
2022-07-26T15:11:05.426Z,96444.63
2022-07-26T15:14:05.883Z,96431.72
2022-07-26T15:17:03.404Z,96435.94
2022-07-26T15:20:00.336Z,96432.91
2022-07-26T15:22:57.263Z,96430.88
2022-07-26T15:25:54.161Z,96427.38
2022-07-26T15:28:51.015Z,96428.97
2022-07-26T15:31:49.317Z,96423.50
2022-07-26T15:34:46.234Z,96425.06
2022-07-26T15:37:48.000Z,96417.66
2022-07-26T15:40:44.878Z,96428.63
2022-07-26T15:43:44.376Z,96420.00
2022-07-26T15:46:47.970Z,96416.47
2022-07-26T15:49:45.657Z,96428.63
2022-07-26T15:52:46.541Z,96414.56
2022-07-26T15:55:43.567Z,96412.59
2022-07-26T15:58:40.469Z,96404.38
2022-07-26T16:01:38.258Z,96407.50
2022-07-26T16:04:35.156Z,96404.00
2022-07-26T16:07:32.555Z,96404.41
2022-07-26T16:10:29.398Z,96407.13
2022-07-26T16:13:26.239Z,96400.91
2022-07-26T16:16:23.685Z,96400.47
2022-07-26T16:19:20.575Z,96398.53
2022-07-26T16:22:17.727Z,96399.31
2022-07-26T16:25:16.038Z,96402.84
2022-07-26T16:28:12.900Z,96403.59
2022-07-26T16:31:09.944Z,96404.38
2022-07-26T16:34:07.594Z,96403.22
2022-07-26T16:37:05.435Z,96406.75
2022-07-26T16:40:02.315Z,96399.66
2022-07-26T16:42:59.433Z,96389.53
2022-07-26T16:45:56.283Z,96400.47
2022-07-26T16:48:53.166Z,96400.34
2022-07-26T16:51:50.111Z,96406.63
2022-07-26T16:54:46.973Z,96395.75
2022-07-26T16:57:43.874Z,96405.88
2022-07-26T17:00:40.816Z,96414.00
2022-07-26T17:03:38.069Z,96411.28
2022-07-26T17:06:34.936Z,96410.03
2022-07-26T17:09:31.849Z,96409.34
2022-07-26T17:12:28.677Z,96409.97
2022-07-26T17:15:25.624Z,96416.53
2022-07-26T17:18:22.510Z,96413.97
2022-07-26T17:21:19.435Z,96412.34
2022-07-26T17:24:17.015Z,96418.97
2022-07-26T17:27:15.302Z,96424.97
2022-07-26T17:30:13.192Z,96426.00
2022-07-26T17:33:10.616Z,96428.91
2022-07-26T17:36:22.046Z,96441.44
2022-07-26T17:39:18.918Z,96439.44
2022-07-26T17:42:18.365Z,96441.03
2022-07-26T17:45:15.363Z,96437.09
2022-07-26T17:48:12.223Z,96447.50
2022-07-26T17:51:09.127Z,96449.84
2022-07-26T17:54:06.389Z,96456.59
2022-07-26T17:57:07.976Z,96460.50
2022-07-26T18:00:09.752Z,96453.78
2022-07-26T18:03:06.604Z,96457.44
2022-07-26T18:06:03.654Z,96455.97
2022-07-26T18:09:01.109Z,96463.75
2022-07-26T18:11:57.990Z,96449.13
2022-07-26T18:14:54.851Z,96459.41
2022-07-26T18:17:51.710Z,96470.03
2022-07-26T18:20:49.117Z,96465.41
2022-07-26T18:24:00.621Z,96468.38
2022-07-26T18:27:02.780Z,96476.41
2022-07-26T18:30:00.441Z,96476.31
2022-07-26T18:32:57.367Z,96472.53
2022-07-26T18:35:54.276Z,96470.56
2022-07-26T18:38:51.455Z,96467.16
2022-07-26T18:41:48.599Z,96479.38
2022-07-26T18:44:45.502Z,96473.53
2022-07-26T18:47:42.536Z,96475.47
2022-07-26T18:50:40.746Z,96480.84
2022-07-26T18:53:40.227Z,96483.72
2022-07-26T18:56:38.031Z,96486.72
2022-07-26T18:59:34.961Z,96480.50
2022-07-26T19:02:33.697Z,96486.09
2022-07-26T19:05:34.386Z,96483.13
2022-07-26T19:08:32.576Z,96485.16
2022-07-26T19:11:30.246Z,96493.22
2022-07-26T19:14:27.300Z,96496.59
2022-07-26T19:17:24.161Z,96511.16
2022-07-26T19:20:21.067Z,96514.47
2022-07-26T19:23:17.986Z,96519.66
2022-07-26T19:26:14.850Z,96519.28
2022-07-26T19:29:12.208Z,96524.69
2022-07-26T19:32:09.549Z,96526.91
2022-07-26T19:35:07.863Z,96532.34
2022-07-26T19:38:04.958Z,96535.94
2022-07-26T19:41:01.965Z,96530.13
2022-07-26T19:43:58.826Z,96535.00
2022-07-26T19:46:57.741Z,96535.13
2022-07-26T19:49:54.963Z,96536.13
2022-07-26T19:52:51.843Z,96536.47
2022-07-26T19:55:48.691Z,96539.09
2022-07-26T19:58:46.201Z,96536.84
2022-07-26T20:01:43.575Z,96542.16
2022-07-26T20:04:45.456Z,96543.91
2022-07-26T20:07:43.417Z,96539.31
2022-07-26T20:10:40.583Z,96549.09
2022-07-26T20:13:38.158Z,96549.75
2022-07-26T20:16:35.091Z,96544.69
2022-07-26T20:19:31.964Z,96544.06
2022-07-26T20:22:29.376Z,96545.47
2022-07-26T20:25:26.294Z,96548.63
2022-07-26T20:28:23.131Z,96544.75
2022-07-26T20:31:20.049Z,96544.47
2022-07-26T20:34:17.035Z,96543.53
2022-07-26T20:37:14.048Z,96545.53
2022-07-26T20:40:13.002Z,96552.97
2022-07-26T20:43:12.600Z,96553.47
2022-07-26T20:46:11.161Z,96551.47
2022-07-26T20:49:09.723Z,96545.38
2022-07-26T20:52:07.044Z,96560.84
2022-07-26T20:55:04.843Z,96546.09
2022-07-26T20:58:01.722Z,96551.72
2022-07-26T21:00:58.957Z,96555.53
2022-07-26T21:03:56.006Z,96549.91
2022-07-26T21:06:53.120Z,96549.09
2022-07-26T21:09:49.986Z,96550.22
2022-07-26T21:12:49.137Z,96552.78
2022-07-26T21:15:46.027Z,96563.53
2022-07-26T21:18:42.945Z,96561.19
2022-07-26T21:21:41.378Z,96560.63
2022-07-26T21:24:38.322Z,96559.63
2022-07-26T21:27:35.205Z,96557.34
2022-07-26T21:30:32.045Z,96559.06
2022-07-26T21:33:28.900Z,96560.72
2022-07-26T21:36:25.797Z,96562.47
2022-07-26T21:39:22.633Z,96563.66
2022-07-26T21:42:19.678Z,96570.84
2022-07-26T21:45:16.673Z,96570.81
2022-07-26T21:48:13.586Z,96575.81
2022-07-26T21:51:10.506Z,96572.28
2022-07-26T21:54:08.163Z,96576.50
2022-07-26T21:57:05.556Z,96588.00
2022-07-26T22:00:02.662Z,96579.56
2022-07-26T22:02:59.586Z,96584.69
2022-07-26T22:05:56.519Z,96580.00
2022-07-26T22:08:53.349Z,96581.25
2022-07-26T22:11:50.221Z,96586.69
2022-07-26T22:14:47.146Z,96587.28
2022-07-26T22:17:44.081Z,96577.13
2022-07-26T22:20:42.007Z,96576.69
2022-07-26T22:23:38.954Z,96578.00
2022-07-26T22:26:36.214Z,96582.53
2022-07-26T22:29:38.940Z,96585.28
2022-07-26T22:32:37.193Z,96578.38
2022-07-26T22:35:36.228Z,96571.34
2022-07-26T22:38:33.249Z,96571.88
2022-07-26T22:41:31.734Z,96573.88
2022-07-26T22:44:29.578Z,96566.09
2022-07-26T22:47:26.481Z,96568.56
2022-07-26T22:50:24.777Z,96576.63
2022-07-26T22:53:21.937Z,96574.53
2022-07-26T22:56:19.862Z,96581.78
2022-07-26T22:59:16.942Z,96575.81
2022-07-26T23:02:13.820Z,96573.81
2022-07-26T23:05:11.416Z,96576.34
2022-07-26T23:08:36.267Z,96588.22
2022-07-26T23:11:25.145Z,96580.31
2022-07-26T23:14:22.003Z,96566.13
2022-07-26T23:17:19.552Z,96562.91
2022-07-26T23:20:16.406Z,96562.38
2022-07-26T23:23:13.267Z,96568.66
2022-07-26T23:26:10.110Z,96568.06
2022-07-26T23:29:08.323Z,96574.97
2022-07-26T23:32:06.136Z,96574.25
2022-07-26T23:35:05.837Z,96572.06
2022-07-26T23:38:02.703Z,96572.66
2022-07-26T23:40:59.711Z,96578.44
2022-07-26T23:43:57.144Z,96572.16
2022-07-26T23:46:54.059Z,96581.53
2022-07-26T23:49:50.969Z,96577.53
2022-07-26T23:52:47.827Z,96566.69
2022-07-26T23:55:44.738Z,96571.19
2022-07-26T23:58:46.396Z,96564.56
